createdAt,value
2022-11-19T00:01:33.743Z,6.08
2022-11-19T00:04:01.549Z,6.09
2022-11-19T00:06:29.525Z,6.08
2022-11-19T00:08:57.165Z,6.13
2022-11-19T00:11:56.088Z,6.13
2022-11-19T00:14:24.962Z,6.09
2022-11-19T00:16:52.649Z,6.08
2022-11-19T00:19:20.649Z,6.07
2022-11-19T00:21:49.863Z,6.08
2022-11-19T00:24:17.882Z,6.06
2022-11-19T00:26:45.760Z,6.03
2022-11-19T00:29:17.860Z,6.00
2022-11-19T00:31:45.767Z,5.99
2022-11-19T00:34:13.507Z,6.03
2022-11-19T00:36:41.149Z,6.02
2022-11-19T00:39:08.919Z,6.05
2022-11-19T00:41:36.575Z,6.10
2022-11-19T00:44:04.219Z,6.13
2022-11-19T00:46:33.720Z,6.22
2022-11-19T00:49:01.557Z,6.32
2022-11-19T00:51:31.544Z,6.36
2022-11-19T00:53:59.369Z,6.42
2022-11-19T00:56:29.008Z,6.48
2022-11-19T00:58:57.021Z,6.48
2022-11-19T01:01:26.717Z,6.50
2022-11-19T01:03:54.940Z,6.52
2022-11-19T01:06:25.663Z,6.49
2022-11-19T01:08:54.422Z,6.50
2022-11-19T01:11:26.442Z,6.50
2022-11-19T01:13:54.683Z,6.54
2022-11-19T01:16:26.377Z,6.54
2022-11-19T01:18:54.617Z,6.52
2022-11-19T01:21:24.747Z,6.50
2022-11-19T01:23:52.565Z,6.51
2022-11-19T01:26:20.570Z,6.52
2022-11-19T01:28:48.888Z,6.52
2022-11-19T01:31:21.279Z,6.53
2022-11-19T01:33:49.334Z,6.50
2022-11-19T01:36:21.936Z,6.49
2022-11-19T01:38:52.005Z,6.42
2022-11-19T01:41:30.121Z,6.38
2022-11-19T01:44:01.357Z,6.34
2022-11-19T01:46:31.585Z,6.30
2022-11-19T01:49:20.140Z,6.27
2022-11-19T01:52:01.552Z,6.25
2022-11-19T01:54:35.696Z,6.24
2022-11-19T01:57:08.163Z,6.25
2022-11-19T01:59:36.179Z,6.27
2022-11-19T02:02:03.849Z,6.26
2022-11-19T02:04:32.623Z,6.25
2022-11-19T02:07:00.414Z,6.22
2022-11-19T02:09:29.160Z,6.21
2022-11-19T02:12:34.429Z,6.21
2022-11-19T02:15:17.313Z,6.21
2022-11-19T02:18:12.809Z,6.23
2022-11-19T02:20:49.462Z,6.25
2022-11-19T02:23:46.510Z,6.26
2022-11-19T02:26:26.527Z,6.28
2022-11-19T02:29:07.353Z,6.25
2022-11-19T02:31:48.716Z,6.31
2022-11-19T02:34:39.440Z,6.35
2022-11-19T02:37:14.995Z,6.32
2022-11-19T02:39:51.126Z,6.36
2022-11-19T02:42:44.270Z,6.38
2022-11-19T02:45:18.046Z,6.40
2022-11-19T02:47:54.223Z,6.43
2022-11-19T02:50:27.810Z,6.44
2022-11-19T02:52:55.836Z,6.46
2022-11-19T02:55:24.819Z,6.51
2022-11-19T02:58:04.677Z,6.53
2022-11-19T03:01:02.970Z,6.60
2022-11-19T03:03:50.674Z,6.64
2022-11-19T03:06:28.312Z,6.70
2022-11-19T03:08:56.035Z,6.72
2022-11-19T03:11:27.692Z,6.75
2022-11-19T03:14:26.192Z,6.77
2022-11-19T03:17:07.233Z,6.81
2022-11-19T03:19:40.401Z,6.80
2022-11-19T03:22:25.970Z,6.81
2022-11-19T03:25:01.661Z,6.82
2022-11-19T03:27:37.506Z,6.84
2022-11-19T03:30:06.103Z,6.87
2022-11-19T03:32:41.776Z,6.90
2022-11-19T03:35:14.985Z,6.89
2022-11-19T03:37:45.454Z,6.91
2022-11-19T03:40:16.113Z,6.92
2022-11-19T03:42:45.681Z,6.91
2022-11-19T03:45:17.718Z,6.96
2022-11-19T03:47:49.060Z,6.97
2022-11-19T03:50:36.404Z,7.00
2022-11-19T03:53:04.714Z,7.02
2022-11-19T03:55:36.511Z,7.07
2022-11-19T03:58:08.932Z,7.04
2022-11-19T04:00:36.592Z,7.05
2022-11-19T04:03:05.510Z,7.06
2022-11-19T04:05:33.211Z,7.06
2022-11-19T04:08:00.905Z,7.06
2022-11-19T04:10:28.539Z,7.06
2022-11-19T04:12:56.265Z,7.07
2022-11-19T04:15:24.054Z,7.09
2022-11-19T04:17:51.652Z,7.08
2022-11-19T04:20:19.460Z,7.11
2022-11-19T04:22:47.165Z,7.10
2022-11-19T04:25:14.822Z,7.09
2022-11-19T04:27:42.684Z,7.09
2022-11-19T04:30:10.990Z,7.06
2022-11-19T04:32:38.610Z,7.06
2022-11-19T04:35:06.740Z,7.03
2022-11-19T04:37:34.455Z,7.01
2022-11-19T04:40:02.177Z,6.94
2022-11-19T04:42:29.842Z,6.91
2022-11-19T04:44:57.521Z,6.88
2022-11-19T04:47:25.162Z,6.85
2022-11-19T04:49:52.811Z,6.84
2022-11-19T04:52:20.448Z,6.81
2022-11-19T04:54:48.139Z,6.81
2022-11-19T04:57:16.024Z,6.75
2022-11-19T04:59:43.943Z,6.72
2022-11-19T05:02:11.582Z,6.68
2022-11-19T05:04:39.186Z,6.68
2022-11-19T05:07:07.026Z,6.67
2022-11-19T05:09:34.674Z,6.67
2022-11-19T05:12:02.400Z,6.65
2022-11-19T05:14:30.649Z,6.71
2022-11-19T05:16:58.546Z,6.74
2022-11-19T05:19:26.147Z,6.74
2022-11-19T05:21:53.808Z,6.77
2022-11-19T05:24:21.418Z,6.79
2022-11-19T05:26:49.072Z,6.82
2022-11-19T05:29:16.904Z,6.83
2022-11-19T05:31:44.800Z,6.84
2022-11-19T05:34:12.403Z,6.84
2022-11-19T05:36:40.080Z,6.88
2022-11-19T05:39:07.743Z,6.90
2022-11-19T05:41:35.442Z,6.92
2022-11-19T05:44:03.107Z,6.93
2022-11-19T05:46:30.791Z,6.93
2022-11-19T05:48:58.496Z,6.94
2022-11-19T05:51:26.187Z,6.96
2022-11-19T05:53:53.892Z,6.97
2022-11-19T05:56:21.608Z,6.97
2022-11-19T05:58:49.563Z,6.97
2022-11-19T06:01:17.217Z,6.95
2022-11-19T06:03:44.908Z,6.93
2022-11-19T06:06:12.510Z,6.97
2022-11-19T06:08:40.170Z,6.94
2022-11-19T06:11:07.834Z,6.94
2022-11-19T06:13:35.512Z,6.90
2022-11-19T06:16:03.192Z,6.88
2022-11-19T06:18:30.848Z,6.83
2022-11-19T06:20:58.524Z,6.80
2022-11-19T06:23:26.237Z,6.76
2022-11-19T06:25:55.660Z,6.68
2022-11-19T06:28:23.403Z,6.69
2022-11-19T06:30:51.049Z,6.62
2022-11-19T06:33:18.728Z,6.62
2022-11-19T06:35:46.307Z,6.63
2022-11-19T06:38:14.098Z,6.57
2022-11-19T06:40:41.735Z,6.53
2022-11-19T06:43:09.363Z,6.52
2022-11-19T06:45:37.054Z,6.51
2022-11-19T06:48:05.343Z,6.46
2022-11-19T06:50:33.026Z,6.42
2022-11-19T06:53:00.612Z,6.38
2022-11-19T06:55:28.680Z,6.41
2022-11-19T06:57:56.498Z,6.45
2022-11-19T07:00:24.388Z,6.46
2022-11-19T07:02:52.536Z,6.52
2022-11-19T07:05:20.263Z,6.56
2022-11-19T07:07:48.014Z,6.59
2022-11-19T07:10:16.066Z,6.62
2022-11-19T07:12:43.752Z,6.60
2022-11-19T07:15:12.040Z,6.59
2022-11-19T07:17:39.751Z,6.57
2022-11-19T07:20:08.123Z,6.56
2022-11-19T07:22:35.736Z,6.55
2022-11-19T07:25:03.402Z,6.55
2022-11-19T07:27:31.014Z,6.58
2022-11-19T07:29:58.624Z,6.56
2022-11-19T07:32:26.259Z,6.53
2022-11-19T07:34:53.953Z,6.49
2022-11-19T07:37:21.640Z,6.51
2022-11-19T07:39:49.251Z,6.49
2022-11-19T07:42:35.502Z,6.45
2022-11-19T07:45:04.173Z,6.40
2022-11-19T07:47:31.826Z,6.39
2022-11-19T07:49:59.452Z,6.41
2022-11-19T07:52:27.078Z,6.42
2022-11-19T07:54:54.715Z,6.41
2022-11-19T07:57:27.212Z,6.48
2022-11-19T07:59:57.724Z,6.55
2022-11-19T08:02:25.457Z,6.65
2022-11-19T08:04:53.147Z,6.73
2022-11-19T08:07:20.886Z,6.81
2022-11-19T08:09:48.651Z,6.84
2022-11-19T08:12:16.390Z,6.86
2022-11-19T08:14:44.115Z,6.93
2022-11-19T08:17:30.069Z,6.96
2022-11-19T08:19:57.817Z,6.96
2022-11-19T08:22:25.456Z,7.00
2022-11-19T08:24:53.096Z,7.00
2022-11-19T08:27:20.828Z,7.01
2022-11-19T08:29:48.460Z,7.10
2022-11-19T08:32:16.220Z,7.16
2022-11-19T08:34:43.853Z,7.17
2022-11-19T08:37:14.624Z,7.15
2022-11-19T08:39:42.259Z,7.16
2022-11-19T08:42:29.504Z,7.16
2022-11-19T08:44:57.319Z,7.20
2022-11-19T08:47:25.097Z,7.23
2022-11-19T08:49:52.798Z,7.30
2022-11-19T08:52:20.449Z,7.42
2022-11-19T08:54:48.108Z,7.52
2022-11-19T08:57:15.704Z,7.60
2022-11-19T08:59:43.361Z,7.70
2022-11-19T09:02:12.129Z,7.78
2022-11-19T09:04:39.965Z,7.90
2022-11-19T09:07:07.694Z,7.98
2022-11-19T09:09:35.328Z,8.08
2022-11-19T09:12:02.970Z,8.19
2022-11-19T09:14:30.664Z,8.28
2022-11-19T09:16:58.357Z,8.35
2022-11-19T09:19:26.020Z,8.43
2022-11-19T09:21:53.829Z,8.55
2022-11-19T09:24:21.948Z,8.56
2022-11-19T09:26:52.855Z,8.66
2022-11-19T09:29:20.973Z,8.74
2022-11-19T09:31:48.667Z,8.85
2022-11-19T09:34:16.423Z,8.86
2022-11-19T09:36:44.088Z,8.95
2022-11-19T09:39:12.368Z,9.04
2022-11-19T09:41:56.411Z,9.12
2022-11-19T09:45:05.100Z,9.14
2022-11-19T09:48:00.824Z,9.10
2022-11-19T09:50:35.261Z,8.97
2022-11-19T09:53:17.892Z,8.85
2022-11-19T09:55:48.313Z,8.83
2022-11-19T09:58:39.598Z,8.87
2022-11-19T10:01:07.725Z,8.88
2022-11-19T10:03:35.419Z,8.91
2022-11-19T10:06:12.081Z,8.97
2022-11-19T10:08:51.686Z,9.04
2022-11-19T10:11:56.757Z,9.13
2022-11-19T10:14:48.829Z,9.31
2022-11-19T10:17:37.431Z,9.48
2022-11-19T10:20:28.433Z,9.69
2022-11-19T10:23:18.938Z,9.55
2022-11-19T10:25:49.067Z,9.59
2022-11-19T10:28:24.021Z,10.00
2022-11-19T10:30:56.429Z,10.04
2022-11-19T10:33:30.010Z,9.98
2022-11-19T10:36:51.085Z,9.89
2022-11-19T10:39:28.842Z,9.80
2022-11-19T10:41:59.307Z,9.72
2022-11-19T10:44:47.166Z,9.70
2022-11-19T10:47:41.129Z,9.64
2022-11-19T10:50:16.259Z,9.52
2022-11-19T10:52:48.395Z,9.39
2022-11-19T10:55:37.195Z,9.42
2022-11-19T10:58:20.095Z,9.43
2022-11-19T11:00:48.572Z,9.38
2022-11-19T11:03:29.993Z,9.31
2022-11-19T11:06:05.499Z,9.29
2022-11-19T11:08:52.737Z,9.17
2022-11-19T11:11:59.053Z,9.04
2022-11-19T11:14:45.731Z,8.89
2022-11-19T11:17:33.460Z,8.78
2022-11-19T11:20:08.163Z,8.70
2022-11-19T11:22:37.423Z,8.68
2022-11-19T11:25:14.128Z,8.65
2022-11-19T11:27:41.751Z,8.60
2022-11-19T11:30:15.339Z,8.57
2022-11-19T11:32:43.762Z,8.62
2022-11-19T11:35:37.059Z,8.67
2022-11-19T11:38:06.221Z,8.68
2022-11-19T11:40:34.062Z,8.76
2022-11-19T11:43:01.966Z,8.86
2022-11-19T11:45:29.534Z,8.96
2022-11-19T11:47:58.725Z,9.02
2022-11-19T11:50:29.136Z,9.06
2022-11-19T11:52:58.892Z,9.11
2022-11-19T11:55:26.448Z,9.15
2022-11-19T11:57:58.118Z,9.17
2022-11-19T12:00:31.588Z,9.19
2022-11-19T12:03:17.316Z,9.25
2022-11-19T12:05:47.556Z,9.37
2022-11-19T12:08:27.277Z,9.44
2022-11-19T12:10:54.954Z,9.50
2022-11-19T12:14:00.087Z,9.51
2022-11-19T12:17:03.507Z,9.54
2022-11-19T12:19:49.402Z,9.55
2022-11-19T12:22:43.807Z,9.56
2022-11-19T12:25:23.874Z,9.59
2022-11-19T12:28:08.999Z,9.61
2022-11-19T12:30:58.472Z,9.62
2022-11-19T12:33:41.066Z,9.58
2022-11-19T12:36:32.096Z,9.56
2022-11-19T12:39:12.371Z,9.58
2022-11-19T12:42:09.734Z,9.63
2022-11-19T12:44:53.982Z,9.64
2022-11-19T12:48:05.152Z,9.73
2022-11-19T12:50:56.067Z,9.82
2022-11-19T12:53:30.029Z,9.85
2022-11-19T12:56:04.233Z,9.89
2022-11-19T12:58:49.144Z,9.86
2022-11-19T13:01:24.733Z,9.82
2022-11-19T13:04:29.367Z,9.77
2022-11-19T13:07:05.826Z,9.72
2022-11-19T13:09:45.027Z,9.64
2022-11-19T13:12:16.691Z,9.66
2022-11-19T13:14:54.710Z,9.66
2022-11-19T13:17:28.426Z,9.64
2022-11-19T13:20:00.125Z,9.69
2022-11-19T13:22:34.171Z,9.77
2022-11-19T13:25:08.297Z,9.86
2022-11-19T13:27:38.082Z,9.95
2022-11-19T13:30:08.411Z,9.99
2022-11-19T13:33:01.170Z,10.04
2022-11-19T13:35:53.980Z,10.08
2022-11-19T13:38:52.454Z,10.13
2022-11-19T13:41:25.805Z,10.17
2022-11-19T13:44:15.783Z,10.21
2022-11-19T13:46:49.078Z,10.23
2022-11-19T13:49:25.695Z,10.27
2022-11-19T13:51:58.089Z,10.26
2022-11-19T13:54:30.290Z,10.25
2022-11-19T13:56:59.400Z,10.20
2022-11-19T13:59:40.530Z,10.15
2022-11-19T14:02:17.120Z,10.14
2022-11-19T14:05:03.063Z,10.11
2022-11-19T14:07:47.488Z,10.11
2022-11-19T14:10:27.461Z,10.06
2022-11-19T14:13:03.971Z,9.98
2022-11-19T14:16:13.108Z,9.85
2022-11-19T14:19:03.421Z,9.84
2022-11-19T14:21:49.702Z,9.79
2022-11-19T14:24:45.020Z,9.69
2022-11-19T14:27:27.586Z,9.62
2022-11-19T14:29:57.438Z,9.57
2022-11-19T14:32:47.437Z,9.53
2022-11-19T14:35:29.825Z,9.49
2022-11-19T14:38:18.035Z,9.47
2022-11-19T14:40:46.276Z,9.35
2022-11-19T14:43:32.125Z,9.24
2022-11-19T14:46:05.718Z,9.20
2022-11-19T14:48:36.790Z,9.20
2022-11-19T14:51:08.636Z,9.15
2022-11-19T14:53:50.551Z,9.14
2022-11-19T14:56:24.008Z,9.07
2022-11-19T14:58:54.633Z,9.03
2022-11-19T15:01:24.232Z,9.00
2022-11-19T15:04:09.842Z,8.96
2022-11-19T15:06:38.717Z,8.99
2022-11-19T15:09:06.830Z,8.99
2022-11-19T15:11:59.090Z,9.01
2022-11-19T15:14:38.295Z,9.00
2022-11-19T15:17:08.468Z,8.97
2022-11-19T15:19:50.217Z,9.00
2022-11-19T15:22:32.604Z,9.04
2022-11-19T15:25:00.239Z,9.03
2022-11-19T15:27:46.252Z,9.02
2022-11-19T15:30:24.694Z,9.00
2022-11-19T15:33:22.244Z,8.98
2022-11-19T15:36:27.450Z,8.94
2022-11-19T15:39:35.530Z,8.92
2022-11-19T15:42:16.809Z,9.03
2022-11-19T15:45:00.385Z,9.06
2022-11-19T15:47:43.221Z,9.03
2022-11-19T15:50:23.420Z,9.12
2022-11-19T15:53:25.043Z,9.11
2022-11-19T15:56:01.204Z,9.15
2022-11-19T15:58:42.313Z,9.14
2022-11-19T16:01:11.698Z,9.14
2022-11-19T16:03:40.426Z,9.12
2022-11-19T16:06:21.834Z,9.11
2022-11-19T16:08:54.993Z,9.07
2022-11-19T16:11:43.929Z,9.10
2022-11-19T16:14:48.657Z,9.05
2022-11-19T16:17:43.109Z,9.00
2022-11-19T16:20:11.091Z,8.94
2022-11-19T16:23:03.401Z,8.91
2022-11-19T16:25:44.595Z,8.88
2022-11-19T16:28:15.416Z,8.83
2022-11-19T16:30:49.182Z,8.78
2022-11-19T16:33:25.989Z,8.75
2022-11-19T16:36:10.906Z,8.68
2022-11-19T16:38:40.406Z,8.65
2022-11-19T16:41:27.012Z,8.63
2022-11-19T16:43:54.796Z,8.58
2022-11-19T16:46:24.157Z,8.52
2022-11-19T16:48:51.764Z,8.48
2022-11-19T16:51:38.104Z,8.44
2022-11-19T16:54:09.107Z,8.41
2022-11-19T16:56:43.563Z,8.38
2022-11-19T16:59:20.168Z,8.33
2022-11-19T17:01:55.133Z,8.29
2022-11-19T17:04:29.795Z,8.29
2022-11-19T17:07:01.155Z,8.22
2022-11-19T17:09:42.732Z,8.21
2022-11-19T17:12:26.189Z,8.22
2022-11-19T17:14:59.339Z,8.26
2022-11-19T17:17:29.988Z,8.41
2022-11-19T17:19:59.046Z,8.78
2022-11-19T17:22:36.272Z,9.22
2022-11-19T17:25:05.439Z,9.70
2022-11-19T17:27:37.481Z,10.15
2022-11-19T17:30:09.562Z,10.62
2022-11-19T17:32:42.659Z,10.65
2022-11-19T17:35:31.174Z,11.06
2022-11-19T17:38:12.958Z,11.34
2022-11-19T17:40:48.059Z,11.71
2022-11-19T17:43:37.251Z,11.99
2022-11-19T17:46:05.039Z,12.14
2022-11-19T17:48:32.743Z,12.17
2022-11-19T17:51:01.212Z,11.99
2022-11-19T17:53:28.889Z,11.81
2022-11-19T17:55:58.656Z,11.59
2022-11-19T17:58:26.284Z,11.30
2022-11-19T18:00:53.974Z,11.01
2022-11-19T18:03:21.656Z,10.79
2022-11-19T18:05:50.645Z,10.54
2022-11-19T18:08:18.397Z,10.34
2022-11-19T18:10:48.359Z,10.05
2022-11-19T18:13:22.489Z,9.74
2022-11-19T18:15:50.149Z,9.53
2022-11-19T18:18:17.794Z,9.30
2022-11-19T18:20:45.506Z,9.14
2022-11-19T18:23:14.729Z,8.96
2022-11-19T18:25:42.811Z,8.82
2022-11-19T18:28:11.565Z,8.73
2022-11-19T18:30:39.284Z,8.59
2022-11-19T18:33:07.069Z,8.50
2022-11-19T18:35:34.768Z,8.38
2022-11-19T18:38:02.500Z,8.27
2022-11-19T18:40:30.234Z,8.16
2022-11-19T18:43:16.660Z,8.10
2022-11-19T18:45:44.370Z,8.03
2022-11-19T18:48:12.007Z,7.95
2022-11-19T18:50:39.682Z,7.92
2022-11-19T18:53:07.407Z,7.91
2022-11-19T18:55:35.075Z,7.88
2022-11-19T18:58:02.728Z,7.87
2022-11-19T19:00:30.547Z,7.85
2022-11-19T19:02:58.173Z,7.81
2022-11-19T19:05:25.824Z,7.74
2022-11-19T19:07:53.437Z,7.70
2022-11-19T19:10:21.160Z,7.64
2022-11-19T19:12:48.854Z,7.62
2022-11-19T19:15:16.605Z,7.62
2022-11-19T19:17:44.204Z,7.58
2022-11-19T19:20:12.378Z,7.54
2022-11-19T19:22:40.064Z,7.44
2022-11-19T19:25:08.040Z,7.38
2022-11-19T19:27:35.971Z,7.38
2022-11-19T19:30:03.644Z,7.37
2022-11-19T19:32:31.377Z,7.38
2022-11-19T19:34:59.055Z,7.34
2022-11-19T19:37:26.676Z,7.33
2022-11-19T19:39:54.607Z,7.37
2022-11-19T19:42:22.231Z,7.38
2022-11-19T19:44:49.879Z,7.34
2022-11-19T19:47:17.543Z,7.32
2022-11-19T19:49:45.315Z,7.29
2022-11-19T19:52:12.918Z,7.32
2022-11-19T19:54:41.986Z,7.36
2022-11-19T19:57:09.709Z,7.39
2022-11-19T19:59:37.443Z,7.42
2022-11-19T20:02:05.199Z,7.43
2022-11-19T20:04:33.558Z,7.43
2022-11-19T20:07:01.434Z,7.39
2022-11-19T20:09:29.389Z,7.35
2022-11-19T20:11:57.547Z,7.35
2022-11-19T20:14:25.303Z,7.34
2022-11-19T20:16:53.045Z,7.36
2022-11-19T20:19:21.089Z,7.32
2022-11-19T20:21:49.098Z,7.31
2022-11-19T20:24:18.482Z,7.29
2022-11-19T20:26:46.395Z,7.28
2022-11-19T20:29:15.463Z,7.26
2022-11-19T20:31:48.135Z,7.25
2022-11-19T20:34:17.344Z,7.23
2022-11-19T20:36:45.387Z,7.18
2022-11-19T20:39:13.905Z,7.15
2022-11-19T20:42:00.240Z,7.11
2022-11-19T20:44:27.885Z,7.05
2022-11-19T20:47:04.214Z,7.01
2022-11-19T20:49:34.556Z,6.95
2022-11-19T20:52:03.110Z,6.93
2022-11-19T20:54:31.172Z,6.89
2022-11-19T20:56:59.729Z,6.84
2022-11-19T20:59:28.280Z,6.88
2022-11-19T21:01:57.348Z,6.93
2022-11-19T21:04:26.871Z,6.94
2022-11-19T21:06:55.117Z,6.90
2022-11-19T21:09:23.149Z,6.88
2022-11-19T21:11:51.140Z,6.82
2022-11-19T21:14:18.895Z,6.81
2022-11-19T21:16:46.681Z,6.82
2022-11-19T21:19:15.575Z,6.79
2022-11-19T21:21:44.176Z,6.76
2022-11-19T21:24:12.046Z,6.73
2022-11-19T21:26:40.022Z,6.72
2022-11-19T21:29:07.809Z,6.67
2022-11-19T21:31:39.946Z,6.67
2022-11-19T21:34:09.387Z,6.65
2022-11-19T21:36:38.126Z,6.67
2022-11-19T21:39:06.968Z,6.67
2022-11-19T21:41:35.485Z,6.67
2022-11-19T21:44:04.357Z,6.61
2022-11-19T21:46:32.114Z,6.56
2022-11-19T21:48:59.944Z,6.51
2022-11-19T21:51:27.633Z,6.41
2022-11-19T21:53:56.464Z,6.26
2022-11-19T21:56:25.422Z,6.18
2022-11-19T21:58:53.071Z,6.15
2022-11-19T22:01:20.792Z,6.09
2022-11-19T22:03:48.565Z,6.05
2022-11-19T22:06:16.295Z,6.02
2022-11-19T22:08:44.676Z,5.90
2022-11-19T22:11:32.396Z,5.86
2022-11-19T22:14:00.277Z,5.85
2022-11-19T22:16:28.566Z,5.80
2022-11-19T22:18:56.298Z,5.75
2022-11-19T22:21:24.369Z,5.72
2022-11-19T22:23:53.775Z,5.69
2022-11-19T22:26:21.548Z,5.68
2022-11-19T22:28:49.245Z,5.69
2022-11-19T22:31:16.941Z,5.65
2022-11-19T22:33:44.721Z,5.64
2022-11-19T22:36:12.637Z,5.64
2022-11-19T22:38:40.801Z,5.63
2022-11-19T22:41:17.617Z,5.64
2022-11-19T22:43:45.415Z,5.62
2022-11-19T22:46:14.059Z,5.58
2022-11-19T22:48:42.291Z,5.57
2022-11-19T22:51:32.423Z,5.55
2022-11-19T22:54:00.035Z,5.53
2022-11-19T22:56:31.362Z,5.56
2022-11-19T22:58:59.386Z,5.53
2022-11-19T23:01:32.847Z,5.52
2022-11-19T23:04:03.162Z,5.51
2022-11-19T23:06:30.814Z,5.50
2022-11-19T23:08:58.882Z,5.51
2022-11-19T23:11:45.024Z,5.53
2022-11-19T23:14:15.564Z,5.54
2022-11-19T23:16:44.209Z,5.50
2022-11-19T23:19:13.439Z,5.50
2022-11-19T23:21:42.295Z,5.47
2022-11-19T23:24:11.394Z,5.41
2022-11-19T23:26:39.313Z,5.41
2022-11-19T23:29:07.597Z,5.38
2022-11-19T23:31:38.355Z,5.38
2022-11-19T23:34:06.333Z,5.37
2022-11-19T23:36:37.288Z,5.34
2022-11-19T23:39:06.493Z,5.34
2022-11-19T23:41:35.187Z,5.31
2022-11-19T23:44:03.321Z,5.25
2022-11-19T23:46:35.740Z,5.27
2022-11-19T23:49:04.884Z,5.26
2022-11-19T23:51:35.425Z,5.25
2022-11-19T23:54:03.653Z,5.26
2022-11-19T23:56:33.608Z,5.27
2022-11-19T23:59:02.925Z,5.26
